Latest Weather Observations for Coober Pedy Airport

IDS60801

Issued at 4:11 pm CDT Wednesday 21 November 2018 (issued every 10 minutes, with the page automatically refreshed every 10 minutes)

About weather observations | Map of weather stations | Latest weather observations for SA | Other Formats
Station Details ID: 016090 Name: COOBER PEDY AIRPORT Lat: -29.03 Lon: 134.72 Height: 225.0 m
Data from the previous 72 hours. | See also: Recent months at Coober Pedy Airport
Date/Time
CDT
Temp
°C
App
Temp
°C
Dew
Point
°C
Rel
Hum
%
Delta-T
°C
Wind Press
QNH
hPa
Press
MSL
hPa
Rain since
9am
mm
Dir  Spd
km/h
Gust
km/h
Spd
kts
Gust
kts
21/04:00pm 23.9 14.0 - 29 - WSW 46 59 25 32 1009.0 1007.8 0.2
21/03:30pm 23.0 13.5 - 29 - WSW 43 63 23 34 1009.2 1008.0 0.2
21/03:22pm 23.7 15.2 - 30 - WSW 39 57 21 31 1009.2 1008.0 0.2
21/03:00pm 22.8 13.2 - 30 - SW 44 57 24 31 1009.4 1008.2 0.2
21/02:53pm 22.8 12.9 - 31 - WSW 46 63 25 34 1009.5 1008.3 0.2
21/02:48pm 22.7 12.6 - 29 - WSW 46 63 25 34 1009.4 1008.2 0.2
21/02:30pm 23.9 15.6 - 28 - WSW 37 59 20 32 1009.8 1008.6 0.2
21/02:00pm 22.9 14.2 - 29 - WSW 39 69 21 37 1009.8 1008.6 0.2
21/01:39pm 23.1 14.8 - 29 - WSW 37 56 20 30 1010.2 1009.0 0.2
21/01:30pm 23.1 14.0 - 29 - W 41 56 22 30 1010.4 1009.2 0.2
21/01:07pm 22.5 13.3 - 29 - W 41 59 22 32 1010.8 1009.7 0.2
21/01:00pm 22.9 13.3 - 30 - WSW 44 61 24 33 1010.9 1009.8 0.2
21/12:39pm 22.4 13.0 - 31 - W 43 61 23 33 1011.1 1010.0 0.2
21/12:30pm 22.1 12.6 - 30 - WSW 43 56 23 30 1011.1 1010.0 0.2
21/12:19pm 22.2 13.2 - 32 - WSW 41 59 22 32 1011.1 1010.0 0.2
21/12:00pm 22.6 14.3 - 34 - WSW 39 54 21 29 1011.1 1010.0 0.2
21/11:30am 20.8 12.2 - 35 - W 39 50 21 27 1011.3 1010.2 0.2
21/11:00am 20.4 13.7 - 43 - W 32 41 17 22 1011.6 1010.5 0.2
21/10:30am 19.0 11.7 - 46 - WSW 35 43 19 23 1011.6 1010.5 0.2
21/10:00am 17.9 11.2 - 50 - WSW 32 41 17 22 1011.8 1010.7 0.0
21/09:30am 16.6 10.0 - 50 - WSW 30 39 16 21 1011.9 1010.8 0.0
21/09:00am 16.0 10.4 - 56 - WSW 26 32 14 17 1011.8 1010.7 3.6
21/08:30am 15.1 9.9 - 59 - WSW 24 28 13 15 1011.6 1010.5 3.6
21/08:00am 14.2 10.0 - 68 - WSW 20 28 11 15 1011.5 1010.4 3.6
21/07:30am 13.0 9.5 - 76 - WSW 17 20 9 11 1011.2 1010.1 3.6
21/07:00am 11.6 8.5 - 84 - WSW 15 15 8 8 1011.0 1009.9 3.6
21/06:30am 11.4 8.3 - 84 - SW 15 19 8 10 1010.8 1009.7 3.6
21/06:00am 11.7 7.9 - 83 - SW 19 20 10 11 1010.6 1009.4 3.6
21/05:30am 12.0 8.0 - 83 - SW 20 24 11 13 1010.4 1009.2 3.6
21/05:00am 12.3 8.6 - 83 - SSW 19 20 10 11 1010.3 1009.1 3.6
21/04:30am 12.7 9.9 - 83 - SW 15 19 8 10 1010.2 1009.0 3.6
21/04:00am 13.2 10.5 - 82 - SSW 15 19 8 10 1010.0 1008.8 3.6
21/03:30am 13.8 10.9 - 84 - S 17 19 9 10 1009.8 1008.6 3.6
21/03:00am 14.4 11.6 - 82 - SSW 17 20 9 11 1009.9 1008.7 3.6
21/02:30am 14.3 12.9 - 94 - WSW 13 15 7 8 1009.9 1008.7 3.6
21/02:00am 14.5 13.4 - 92 - W 11 11 6 6 1010.3 1009.1 3.6
21/01:30am 14.7 13.2 - 90 - WSW 13 15 7 8 1009.9 1008.7 3.6
21/01:00am 15.0 13.9 - 89 - NW 11 13 6 7 1010.3 1009.1 3.6
21/12:30am 15.4 14.3 - 86 - NNW 11 13 6 7 1010.4 1009.2 3.6
21/12:00am 15.7 14.7 - 86 - NNW 11 11 6 6 1010.1 1008.9 3.6
 
Date/Time
CDT
Temp
°C
App
Temp
°C
Dew
Point
°C
Rel
Hum
%
Delta-T
°C
Wind Press
QNH
hPa
Press
MSL
hPa
Rain since
9am
mm
Dir  Spd
km/h
Gust
km/h
Spd
kts
Gust
kts
20/11:30pm 16.1 16.1 - 88 - NNW 7 9 4 5 1009.8 1008.6 3.6
20/11:00pm 15.9 15.8 - 88 - NNW 7 9 4 5 1009.4 1008.2 3.6
20/10:30pm 16.3 17.7 - 88 - CALM 0 0 0 0 1009.6 1008.4 3.6
20/10:00pm 16.2 17.5 - 88 - CALM 0 0 0 0 1009.3 1008.1 3.6
20/09:30pm 16.1 17.2 - 84 - CALM 0 0 0 0 1009.1 1007.9 3.6
20/09:00pm 16.6 16.5 - 81 - WSW 6 7 3 4 1009.6 1008.4 3.6
20/08:30pm 16.9 17.1 - 78 - WSW 4 7 2 4 1009.6 1008.4 3.6
20/08:00pm 17.3 16.6 - 77 - WSW 9 13 5 7 1009.6 1008.4 3.6
20/07:30pm 17.3 15.4 - 76 - SW 15 19 8 10 1009.2 1008.0 3.6
20/07:00pm 17.4 15.5 - 75 - SW 15 20 8 11 1009.2 1008.0 3.6
20/06:30pm 17.6 15.2 - 73 - SW 17 19 9 10 1010.0 1008.8 3.6
20/06:00pm 17.6 14.9 - 74 - SW 19 24 10 13 1009.9 1008.7 3.6
20/05:30pm 17.6 14.8 - 75 - SW 20 24 11 13 1010.0 1008.8 3.6
20/05:00pm 17.6 14.1 - 76 - SW 24 30 13 16 1009.9 1008.7 3.6
20/04:30pm 17.5 13.9 - 75 - SW 24 32 13 17 1009.8 1008.6 3.6
20/04:00pm 17.6 13.8 - 77 - SSW 26 32 14 17 1009.7 1008.5 3.6
20/03:30pm 17.1 14.6 - 82 - SW 20 26 11 14 1010.5 1009.3 3.6
20/03:00pm 17.4 13.1 - 77 - SW 28 33 15 18 1011.2 1010.1 3.2
20/02:30pm 18.1 13.3 - 72 - SW 30 39 16 21 1010.9 1009.8 3.2
20/02:00pm 18.4 14.3 - 74 - SW 28 35 15 19 1010.6 1009.4 3.2
20/01:44pm 18.3 13.9 - 77 - SSW 30 37 16 20 1011.2 1010.1 3.2
20/01:30pm 17.7 13.7 - 79 - S 28 35 15 19 1009.2 1008.0 3.2
20/01:00pm 17.5 15.0 - 80 - SSW 20 26 11 14 1011.2 1010.1 2.6
20/12:30pm 17.6 13.0 - 77 - SSW 30 37 16 20 1011.4 1010.3 2.6
20/12:00pm 16.9 12.9 - 84 - S 28 33 15 18 1011.0 1009.9 2.6
20/11:30am 15.9 14.0 - 89 - SSE 17 22 9 12 1010.6 1009.4 2.4
20/11:24am 15.7 14.9 - 90 - S 11 17 6 9 1011.2 1010.1 2.0
20/11:12am 15.4 12.0 - 89 - SSW 24 32 13 17 1011.3 1010.2 1.6
20/11:00am 16.5 12.3 - 83 - SW 28 35 15 19 1012.6 1011.5 0.2
20/10:30am 16.9 12.1 - 78 - SSW 30 35 16 19 1011.3 1010.2 0.2
20/10:00am 17.0 13.0 - 83 - S 28 35 15 19 1010.8 1009.7 0.2
20/09:37am 16.0 12.0 - 88 - SSW 28 35 15 19 1009.6 1008.4 0.2
20/09:30am 15.9 11.8 - 88 - SSW 28 33 15 18 1012.0 1010.9 0.2
20/09:25am 16.2 12.0 - 90 - SSW 30 41 16 22 1011.6 1010.5 0.2
20/09:04am 15.2 11.2 - 93 - SE 28 41 15 22 1009.6 1008.4 0.2
20/09:00am 15.2 11.2 - 94 - SSE 28 41 15 22 1008.6 1007.4 3.2
20/08:53am 15.0 10.5 - 93 - S 30 37 16 20 1009.8 1008.6 3.0
20/08:40am 15.4 10.0 - 90 - SW 35 44 19 24 1011.9 1010.8 1.6
20/08:36am 15.6 10.2 - 89 - SW 35 46 19 25 1012.3 1011.2 1.0
20/08:30am 16.4 10.4 - 82 - SSW 37 46 20 25 1011.8 1010.7 0.0
20/08:00am 16.5 10.7 - 79 - S 35 43 19 23 1009.9 1008.7 0.0
20/07:30am 16.4 10.6 - 79 - SSW 35 43 19 23 1010.1 1008.9 0.0
20/07:21am 16.4 11.3 - 81 - S 32 37 17 20 1009.9 1008.7 0.0
20/07:00am 16.4 10.6 - 78 - S 35 43 19 23 1009.9 1008.7 0.0
20/06:30am 16.3 12.0 - 82 - S 28 32 15 17 1010.0 1008.8 0.0
20/06:08am 16.3 11.2 - 81 - SSW 32 39 17 21 1010.0 1008.8 0.0
20/06:00am 16.3 11.2 - 81 - SSW 32 39 17 21 1009.8 1008.6 0.0
20/05:30am 16.5 11.2 - 80 - SSW 33 43 18 23 1009.5 1008.3 0.0
20/05:00am 16.8 11.7 - 82 - SSW 33 41 18 22 1009.7 1008.5 0.0
20/04:30am 17.2 12.5 - 83 - SSW 32 39 17 21 1009.5 1008.3 0.0
20/04:00am 17.7 13.6 - 84 - SSW 30 35 16 19 1009.7 1008.5 0.0
20/03:46am 18.3 13.8 - 80 - SSW 32 39 17 21 1009.2 1008.0 0.0
20/03:30am 19.1 15.3 - 76 - SSW 28 37 15 20 1009.2 1008.0 0.0
20/03:00am 19.9 17.9 - 76 - SSE 20 28 11 15 1008.9 1007.7 0.0
20/02:30am 19.7 17.4 - 78 - SSE 22 28 12 15 1008.8 1007.6 0.0
20/02:00am 19.8 17.4 - 80 - SSE 24 32 13 17 1008.7 1007.5 0.0
20/01:30am 20.0 16.2 - 81 - S 32 39 17 21 1009.6 1008.4 0.0
20/01:00am 21.1 18.0 - 80 - SSW 30 35 16 19 1010.1 1008.9 0.0
20/12:30am 21.3 19.6 - 82 - SSW 24 28 13 15 1010.3 1009.1 0.0
20/12:00am 22.1 19.6 - 78 - SSW 28 33 15 18 1010.0 1008.8 0.0
 
Date/Time
CDT
Temp
°C
App
Temp
°C
Dew
Point
°C
Rel
Hum
%
Delta-T
°C
Wind Press
QNH
hPa
Press
MSL
hPa
Rain since
9am
mm
Dir  Spd
km/h
Gust
km/h
Spd
kts
Gust
kts
19/11:30pm 22.7 22.4 - 72 - SSW 15 19 8 10 1010.0 1008.8 0.0
19/11:00pm 21.8 19.2 - 78 - SW 28 39 15 21 1010.5 1009.3 0.0
19/10:30pm 23.1 17.7 - 69 - WSW 41 57 22 31 1010.5 1009.3 0.0
19/10:09pm 24.6 15.9 - 58 - W 56 74 30 40 1010.2 1009.0 0.0
19/10:05pm 26.1 17.1 - 47 - W 54 72 29 39 1009.7 1008.5 0.0
19/10:00pm 29.4 22.0 - 30 - WNW 39 69 21 37 1009.1 1007.9 0.0
19/09:56pm 29.7 24.6 - 28 - WNW 26 69 14 37 1008.8 1007.6 0.0
19/09:30pm 29.8 26.3 - 27 - NNW 17 20 9 11 1006.7 1005.5 0.0
19/09:00pm 29.1 25.3 - 30 - NNW 20 24 11 13 1006.3 1005.1 0.0
19/08:30pm 29.2 25.2 - 31 - NW 22 28 12 15 1005.8 1004.6 0.0
19/08:00pm 29.6 23.6 - 30 - NW 32 41 17 22 1006.2 1005.0 0.0
19/07:30pm 30.8 21.4 - 28 - NW 50 61 27 33 1005.8 1004.6 0.0
19/07:19pm 32.6 24.0 - 22 - NNW 43 63 23 34 1005.4 1004.2 0.0
19/07:12pm 33.9 25.5 - 17 - NW 39 48 21 26 1005.2 1004.0 0.0
19/07:02pm 33.6 26.0 - 18 - WNW 35 54 19 29 1004.8 1003.6 0.0
19/07:00pm 33.5 25.5 - 18 - WNW 37 54 20 29 1004.8 1003.6 0.0
19/06:40pm 35.0 27.7 - 13 - WNW 30 50 16 27 1004.5 1003.3 0.0
19/06:30pm 35.6 29.3 - 12 - NW 24 35 13 19 1004.3 1003.1 0.0
19/06:00pm 36.5 29.6 - 10 - NNW 26 33 14 18 1003.5 1002.3 0.0
19/05:30pm 36.8 29.9 - 10 - NNW 26 35 14 19 1003.2 1002.1 0.0
19/05:00pm 36.6 29.7 - 10 - N 26 35 14 19 1003.8 1002.6 0.0
19/04:30pm 37.0 31.1 - 11 - N 22 30 12 16 1004.0 1002.8 0.0
19/04:00pm 37.6 31.2 - 10 - NNW 24 37 13 20 1004.4 1003.2 0.0
19/03:30pm 37.0 31.1 - 11 - NNW 22 32 12 17 1004.7 1003.5 0.0
19/03:00pm 35.9 28.4 - 11 - NNW 30 43 16 23 1005.5 1004.3 0.0
19/02:30pm 35.6 27.6 - 11 - NW 32 41 17 22 1006.2 1005.0 0.0
19/02:00pm 35.5 27.3 - 10 - N 32 39 17 21 1007.2 1006.1 0.0
19/01:30pm 35.8 29.0 - 9 - NNW 24 33 13 18 1007.7 1006.6 0.0
19/01:00pm 35.4 26.8 - 9 - NNW 33 41 18 22 1008.1 1006.9 0.0
19/12:30pm 36.2 27.0 - 9 - N 37 48 20 26 1008.4 1007.2 0.0
19/12:00pm 36.8 27.6 - 9 - N 37 50 20 27 1008.7 1007.5 0.0
19/11:30am 36.7 27.9 - 9 - N 35 46 19 25 1008.8 1007.6 0.0
19/11:00am 35.3 26.9 - 10 - N 33 54 18 29 1009.2 1008.0 0.0
19/10:59am 35.3 26.9 - 10 - N 33 54 18 29 1009.2 1008.0 0.0
19/10:30am 34.2 25.9 - 10 - NNE 32 43 17 23 1009.6 1008.4 0.0
19/10:00am 32.7 24.6 - 10 - NNE 30 39 16 21 1009.9 1008.7 0.0
19/09:30am 31.1 23.0 - 11 - NNE 30 35 16 19 1009.9 1008.7 0.0
19/09:00am 27.9 20.4 - 12 - NNE 26 33 14 18 1009.9 1008.7 0.0
19/08:30am 24.9 17.8 - 14 - NNE 24 30 13 16 1009.6 1008.4 0.0
19/08:00am 23.8 16.6 - 14 - NNE 24 30 13 16 1009.5 1008.3 0.0
19/07:30am 23.1 16.3 - 15 - NNE 22 28 12 15 1009.3 1008.1 0.0
19/07:00am 21.2 14.7 - 16 - NNE 20 24 11 13 1009.2 1008.0 0.0
19/06:30am 20.1 13.6 - 17 - NNE 20 20 11 11 1008.8 1007.6 0.0
19/06:00am 20.6 13.6 - 15 - NNE 22 26 12 14 1008.6 1007.4 0.0
19/05:30am 20.9 13.9 - 15 - NNE 22 24 12 13 1008.2 1007.0 0.0
19/05:00am 21.2 14.3 - 15 - NNE 22 24 12 13 1008.2 1007.0 0.0
19/04:30am 21.3 14.7 - 14 - NNE 20 22 11 12 1007.9 1006.8 0.0
19/04:00am 21.9 15.3 - 14 - NNE 20 24 11 13 1008.1 1006.9 0.0
19/03:30am 22.0 15.4 - 14 - NNE 20 22 11 12 1008.3 1007.1 0.0
19/03:00am 22.8 16.2 - 13 - NNE 20 24 11 13 1008.5 1007.3 0.0
19/02:30am 23.8 16.9 - 13 - NE 22 26 12 14 1008.9 1007.7 0.0
19/02:00am 24.7 17.9 - 13 - NE 22 26 12 14 1009.1 1007.9 0.0
19/01:30am 23.4 17.5 - 14 - NE 17 20 9 11 1009.6 1008.4 0.0
19/01:00am 24.5 18.2 - 13 - NE 19 19 10 10 1009.8 1008.6 0.0
19/12:30am 25.3 19.1 - 13 - NE 19 20 10 11 1010.0 1008.8 0.0
19/12:00am 26.2 19.8 - 12 - NE 20 22 11 12 1010.6 1009.4 0.0
 
Date/Time
CDT
Temp
°C
App
Temp
°C
Dew
Point
°C
Rel
Hum
%
Delta-T
°C
Wind Press
QNH
hPa
Press
MSL
hPa
Rain since
9am
mm
Dir  Spd
km/h
Gust
km/h
Spd
kts
Gust
kts
18/11:30pm 26.3 20.5 - 13 - NE 17 20 9 11 1011.0 1009.9 0.0
18/11:00pm 26.8 20.6 - 12 - NE 19 20 10 11 1011.1 1010.0 0.0
18/10:30pm 26.9 21.2 - 13 - NE 17 19 9 10 1010.9 1009.8 0.0
18/10:00pm 27.9 22.5 - 12 - NE 15 15 8 8 1010.6 1009.4 0.0
18/09:30pm 28.3 23.0 - 12 - NE 15 15 8 8 1010.2 1009.0 0.0
18/09:00pm 29.2 24.0 - 12 - NNE 15 15 8 8 1010.0 1008.8 0.0
18/08:30pm 30.6 26.5 - 11 - NE 9 13 5 7 1009.9 1008.7 0.0
18/08:00pm 32.8 29.7 - 10 - NE 4 9 2 5 1009.8 1008.6 0.0
18/07:30pm 34.3 29.4 - 9 - NNE 13 17 7 9 1009.7 1008.5 0.0
18/07:00pm 34.8 32.5 - 9 - CALM 0 7 0 4 1009.6 1008.4 0.0
18/06:30pm 35.2 31.6 - 9 - N 7 13 4 7 1009.5 1008.3 0.0
18/06:00pm 35.2 31.8 - 9 - ENE 6 17 3 9 1009.5 1008.3 0.0
18/05:30pm 35.0 31.3 - 9 - NE 7 22 4 12 1009.6 1008.4 0.0
18/05:00pm 35.1 31.6 - 9 - SE 6 15 3 8 1009.8 1008.6 0.0
18/04:30pm 34.8 31.1 - 9 - NE 7 15 4 8 1010.1 1008.9 0.0

Other Formats:

Comma delimited format used in spreadsheet applications
http://www.bom.gov.au/fwo/IDS60801/IDS60801.95458.axf

JavaScript Object Notation format (JSON) in row-major order
http://www.bom.gov.au/fwo/IDS60801/IDS60801.95458.json